Time;durP1;ratioP1;P1;durP2;ratioP2;P2;SDS_P1;SDS_P2;PMS_P1;PMS_P2;Temp;Humidity;BMP_temperature;BMP_pressure;BME280_temperature;BME280_humidity;BME280_pressure;Samples;Min_cycle;Max_cycle;Signal;HPM_P1;HPM_P2
2023/05/22 00:00:53;;;;;;;19.90;11.13;;;;;;;13.84;100.00;98366.13;4988026;28;20029;-50
2023/05/22 00:03:19;;;;;;;19.52;12.10;;;;;;;13.80;100.00;98373.91;4993994;28;20029;-50
2023/05/22 00:05:44;;;;;;;18.10;11.43;;;;;;;13.76;100.00;98368.13;4989221;28;20029;-50
2023/05/22 00:08:10;;;;;;;20.45;12.30;;;;;;;13.76;100.00;98376.28;4990991;28;20022;-50
2023/05/22 00:10:38;;;;;;;17.73;11.85;;;;;;;13.76;100.00;98370.03;5003224;28;20057;-50
2023/05/22 00:13:04;;;;;;;18.35;12.52;;;;;;;13.67;100.00;98376.84;4988506;28;20108;-50
2023/05/22 00:15:29;;;;;;;20.75;12.38;;;;;;;13.60;100.00;98379.69;4991044;28;20053;-50
2023/05/22 00:17:55;;;;;;;18.23;12.98;;;;;;;13.55;100.00;98374.13;4980032;28;20045;-50
2023/05/22 00:20:20;;;;;;;21.42;13.10;;;;;;;13.54;100.00;98383.31;4982253;28;20504;-50
2023/05/22 00:22:47;;;;;;;22.48;13.43;;;;;;;13.49;100.00;98386.75;5008075;28;20036;-50
2023/05/22 00:25:17;;;;;;;20.33;13.55;;;;;;;13.44;100.00;98383.91;4981224;28;20313;-50
2023/05/22 00:27:42;;;;;;;20.13;12.32;;;;;;;13.42;100.00;98382.50;4989273;28;20022;-50
2023/05/22 00:30:08;;;;;;;20.05;12.57;;;;;;;13.33;100.00;98380.06;4976426;28;20044;-50
2023/05/22 00:32:33;;;;;;;24.60;12.52;;;;;;;13.35;100.00;98372.53;4986569;28;20026;-50
2023/05/22 00:34:59;;;;;;;19.63;12.93;;;;;;;13.42;100.00;98364.28;4998985;28;20108;-50
2023/05/22 00:37:24;;;;;;;21.25;12.20;;;;;;;13.41;100.00;98373.47;4983657;28;20042;-50
2023/05/22 00:39:49;;;;;;;21.33;12.57;;;;;;;13.32;100.00;98373.00;4979775;28;20478;-50
2023/05/22 00:42:15;;;;;;;18.40;11.73;;;;;;;13.32;100.00;98375.72;4978509;28;20030;-50
2023/05/22 00:44:41;;;;;;;19.80;12.07;;;;;;;13.30;100.00;98371.56;4994875;28;20068;-50
2023/05/22 00:47:06;;;;;;;17.95;11.40;;;;;;;13.28;100.00;98374.53;4993876;28;20112;-50
2023/05/22 00:49:32;;;;;;;22.85;11.77;;;;;;;13.24;100.00;98367.03;4985184;28;20026;-50
2023/05/22 00:51:59;;;;;;;18.48;10.90;;;;;;;13.25;100.00;98372.22;4990659;28;20370;-50
2023/05/22 00:54:24;;;;;;;19.42;11.40;;;;;;;13.15;100.00;98378.25;4991540;28;20038;-50
2023/05/22 00:56:50;;;;;;;17.08;11.75;;;;;;;13.07;100.00;98377.72;4996335;28;20127;-50
2023/05/22 00:59:15;;;;;;;18.33;11.73;;;;;;;13.01;100.00;98378.63;4993962;28;20037;-50
2023/05/22 01:01:41;;;;;;;18.20;10.95;;;;;;;12.90;100.00;98372.91;4986962;28;20032;-50
2023/05/22 01:04:09;;;;;;;16.42;11.07;;;;;;;12.85;100.00;98375.50;4983428;28;20022;-50
2023/05/22 01:06:35;;;;;;;24.13;12.80;;;;;;;12.80;100.00;98378.06;4986259;28;20033;-50
2023/05/22 01:09:00;;;;;;;17.52;11.68;;;;;;;12.72;100.00;98384.63;4989411;28;20026;-50
2023/05/22 01:11:44;;;;;;;17.75;12.32;;;;;;;12.67;100.00;98375.50;4993255;28;20111;-50
2023/05/22 01:14:28;;;;;;;19.95;12.00;;;;;;;12.65;100.00;98377.63;4994996;28;20473;-50
2023/05/22 01:17:33;;;;;;;19.13;11.15;;;;;;;12.54;100.00;98383.81;4992675;28;20429;-50
2023/05/22 01:20:24;;;;;;;17.95;11.60;;;;;;;12.57;100.00;98388.78;4988893;28;20030;-50
2023/05/22 01:23:08;;;;;;;16.00;11.57;;;;;;;12.61;100.00;98379.16;4995417;28;20461;-48
2023/05/22 01:26:11;;;;;;;17.77;11.70;;;;;;;12.58;100.00;98391.28;4987543;28;20498;-49
2023/05/22 01:28:55;;;;;;;21.35;12.38;;;;;;;12.63;100.00;98387.91;4990498;28;20038;-48
2023/05/22 01:31:26;;;;;;;17.58;11.30;;;;;;;12.66;100.00;98388.25;4991144;28;20037;-49
2023/05/22 01:33:55;;;;;;;23.38;13.13;;;;;;;12.64;100.00;98390.38;4990758;28;20057;-48
2023/05/22 01:36:22;;;;;;;20.10;13.23;;;;;;;12.64;100.00;98390.38;5000903;28;20116;-48
2023/05/22 01:38:50;;;;;;;22.65;13.15;;;;;;;12.62;100.00;98391.66;4994055;28;20054;-48
2023/05/22 01:41:16;;;;;;;25.40;12.45;;;;;;;12.59;100.00;98387.50;4987804;28;20068;-48
2023/05/22 01:43:42;;;;;;;19.30;12.73;;;;;;;12.52;100.00;98392.16;4982504;28;20014;-48
2023/05/22 01:46:07;;;;;;;20.33;12.43;;;;;;;12.53;100.00;98391.13;4989650;28;20021;-48
2023/05/22 01:48:34;;;;;;;18.40;12.27;;;;;;;12.49;100.00;98396.16;4998286;28;20026;-49
2023/05/22 01:51:06;;;;;;;19.20;11.20;;;;;;;12.58;100.00;98401.31;4992090;28;20026;-49
2023/05/22 01:53:37;;;;;;;21.27;11.35;;;;;;;12.58;100.00;98395.88;4994486;28;20108;-49
2023/05/22 01:56:11;;;;;;;17.05;10.98;;;;;;;12.64;100.00;98397.69;4988490;28;20085;-48
2023/05/22 01:58:41;;;;;;;18.50;12.02;;;;;;;12.50;100.00;98400.56;4995726;28;20105;-49
2023/05/22 02:01:08;;;;;;;20.25;10.70;;;;;;;12.44;100.00;98406.03;4990748;28;20030;-49
2023/05/22 02:03:36;;;;;;;17.67;10.60;;;;;;;12.34;100.00;98403.88;5014858;28;20097;-48
2023/05/22 02:06:06;;;;;;;17.73;11.50;;;;;;;12.26;100.00;98398.69;4995178;28;20117;-48
2023/05/22 02:08:33;;;;;;;15.32;10.82;;;;;;;12.22;100.00;98400.22;4988973;28;20022;-48
2023/05/22 02:11:00;;;;;;;14.90;10.73;;;;;;;12.20;100.00;98403.16;4987420;28;20026;-48
2023/05/22 02:13:27;;;;;;;15.23;10.40;;;;;;;12.19;100.00;98408.81;4982497;28;20129;-49
2023/05/22 02:15:54;;;;;;;17.92;11.95;;;;;;;12.17;100.00;98400.88;4995573;28;20489;-49
2023/05/22 02:18:28;;;;;;;16.70;10.77;;;;;;;12.21;100.00;98406.72;4995373;28;20033;-49
2023/05/22 02:20:55;;;;;;;16.27;11.38;;;;;;;12.16;100.00;98411.97;4992361;28;20121;-49
2023/05/22 02:23:20;;;;;;;17.05;11.48;;;;;;;12.08;100.00;98404.94;5002325;28;20152;-49
2023/05/22 02:25:46;;;;;;;18.85;11.13;;;;;;;12.05;100.00;98406.22;5009215;28;20084;-49
2023/05/22 02:28:11;;;;;;;21.48;12.73;;;;;;;12.04;100.00;98406.44;5013793;28;20029;-49
2023/05/22 02:30:36;;;;;;;18.73;11.90;;;;;;;12.00;100.00;98406.06;5011222;28;20029;-49
2023/05/22 02:33:04;;;;;;;21.58;12.70;;;;;;;12.01;100.00;98402.28;4989851;28;20419;-49
2023/05/22 02:35:30;;;;;;;18.40;12.70;;;;;;;11.95;100.00;98402.38;4987957;28;20033;-49
2023/05/22 02:37:56;;;;;;;17.73;12.07;;;;;;;11.98;100.00;98407.34;4989333;28;20025;-49
2023/05/22 02:40:21;;;;;;;20.25;12.52;;;;;;;12.00;100.00;98406.06;4985781;28;20029;-49
2023/05/22 02:42:47;;;;;;;20.00;11.88;;;;;;;11.96;100.00;98409.44;4995420;28;20032;-49
2023/05/22 02:45:12;;;;;;;18.55;12.55;;;;;;;11.89;100.00;98398.63;4987884;28;20033;-49
2023/05/22 02:47:37;;;;;;;19.00;11.18;;;;;;;11.86;100.00;98412.63;4985294;28;20096;-49
2023/05/22 02:50:03;;;;;;;19.42;12.25;;;;;;;11.82;100.00;98414.09;4997962;28;20147;-49
2023/05/22 02:52:29;;;;;;;19.67;11.60;;;;;;;11.79;100.00;98409.13;4984842;28;20045;-49
2023/05/22 02:54:55;;;;;;;16.67;11.48;;;;;;;11.78;100.00;98408.28;4978863;28;20030;-49
2023/05/22 02:57:20;;;;;;;17.13;11.65;;;;;;;11.83;100.00;98410.34;4992617;28;20029;-50
2023/05/22 02:59:45;;;;;;;17.83;10.90;;;;;;;11.80;100.00;98402.66;4978140;28;20133;-49
2023/05/22 03:02:11;;;;;;;16.70;11.25;;;;;;;11.77;100.00;98405.81;4985609;28;20026;-49
2023/05/22 03:04:37;;;;;;;22.27;11.05;;;;;;;11.79;100.00;98409.97;4982869;28;20490;-49
2023/05/22 03:07:03;;;;;;;17.52;11.25;;;;;;;11.69;100.00;98412.34;4979487;28;20478;-49
2023/05/22 03:09:28;;;;;;;17.60;10.95;;;;;;;11.69;100.00;98417.75;4986281;28;20497;-49
2023/05/22 03:11:54;;;;;;;18.52;10.93;;;;;;;11.71;100.00;98412.09;4993775;28;20061;-49
2023/05/22 03:14:19;;;;;;;16.63;11.23;;;;;;;11.67;100.00;98410.88;4993000;28;20449;-49
2023/05/22 03:16:45;;;;;;;17.58;11.05;;;;;;;11.63;100.00;98408.63;4982113;28;20072;-49
2023/05/22 03:19:14;;;;;;;16.27;10.52;;;;;;;11.58;100.00;98421.16;4989895;28;20022;-49
2023/05/22 03:21:40;;;;;;;16.55;10.45;;;;;;;11.57;100.00;98412.19;4982037;28;20026;-49
2023/05/22 03:24:06;;;;;;;18.23;10.73;;;;;;;11.52;100.00;98419.31;4989732;28;20492;-49
2023/05/22 03:26:32;;;;;;;16.13;9.93;;;;;;;11.50;100.00;98427.69;4995553;28;20057;-49
2023/05/22 03:28:58;;;;;;;16.35;11.00;;;;;;;11.48;100.00;98427.06;4987976;28;20023;-49
2023/05/22 03:31:25;;;;;;;17.60;11.35;;;;;;;11.49;100.00;98428.72;4979121;28;20032;-49
2023/05/22 03:33:50;;;;;;;20.88;11.52;;;;;;;11.48;100.00;98434.38;4985587;28;20032;-49
2023/05/22 03:36:15;;;;;;;19.17;12.55;;;;;;;11.39;100.00;98439.19;4996870;28;20116;-49
2023/05/22 03:38:41;;;;;;;18.88;13.38;;;;;;;11.31;100.00;98437.56;4994923;28;20080;-49
2023/05/22 03:41:06;;;;;;;24.25;14.05;;;;;;;11.37;100.00;98441.28;4987599;28;20033;-49
2023/05/22 03:43:32;;;;;;;22.23;15.05;;;;;;;11.41;100.00;98439.81;4990152;28;20433;-49
2023/05/22 03:45:58;;;;;;;21.05;13.30;;;;;;;11.39;100.00;98442.72;4991360;28;20040;-49
2023/05/22 03:48:23;;;;;;;24.48;13.88;;;;;;;11.35;100.00;98451.53;4986978;28;20501;-49
2023/05/22 03:50:49;;;;;;;23.40;13.95;;;;;;;11.38;100.00;98448.38;4986020;28;20101;-49
2023/05/22 03:53:15;;;;;;;22.23;13.48;;;;;;;11.41;100.00;98439.81;4992483;28;20437;-49
2023/05/22 03:55:40;;;;;;;18.80;13.60;;;;;;;11.41;100.00;98440.63;4990052;28;20026;-49
2023/05/22 03:58:06;;;;;;;19.88;12.88;;;;;;;11.46;100.00;98448.13;4991080;28;20030;-51
2023/05/22 04:00:32;;;;;;;24.00;13.25;;;;;;;11.54;100.00;98447.84;5002549;28;20037;-49
2023/05/22 04:02:58;;;;;;;17.52;11.57;;;;;;;11.61;100.00;98445.94;4985154;28;20022;-49
2023/05/22 04:05:24;;;;;;;18.33;12.23;;;;;;;11.71;100.00;98441.91;4992592;28;20029;-49
2023/05/22 04:07:49;;;;;;;16.60;11.27;;;;;;;11.82;100.00;98443.94;4980289;28;20403;-49
2023/05/22 04:10:15;;;;;;;16.80;11.50;;;;;;;11.95;100.00;98433.00;4986971;28;20136;-49
2023/05/22 04:12:40;;;;;;;20.10;12.18;;;;;;;12.06;100.00;98437.69;4992391;28;20030;-49
2023/05/22 04:15:06;;;;;;;18.10;11.88;;;;;;;12.20;100.00;98437.56;4993827;28;20033;-49
2023/05/22 04:17:32;;;;;;;18.55;11.82;;;;;;;12.31;100.00;98444.97;4980865;28;20486;-50
2023/05/22 04:19:59;;;;;;;18.65;11.52;;;;;;;12.42;100.00;98448.88;4984166;28;20057;-50
2023/05/22 04:22:26;;;;;;;20.17;12.80;;;;;;;12.51;100.00;98439.38;4992076;28;20409;-50
2023/05/22 04:24:52;;;;;;;15.95;12.02;;;;;;;12.61;100.00;98438.84;4987312;28;20026;-50
2023/05/22 04:27:20;;;;;;;20.95;12.27;;;;;;;12.72;100.00;98438.91;4983769;28;20045;-50
2023/05/22 04:29:47;;;;;;;16.75;11.93;;;;;;;12.83;100.00;98434.59;4980602;28;20021;-47
2023/05/22 04:32:17;;;;;;;21.75;11.65;;;;;;;12.97;100.00;98431.72;4985689;28;20026;-48
2023/05/22 04:34:46;;;;;;;23.00;11.52;;;;;;;13.09;100.00;98436.16;4983325;28;20026;-48
2023/05/22 04:37:13;;;;;;;17.98;12.38;;;;;;;13.16;100.00;98445.06;5001410;28;20021;-48
2023/05/22 04:39:39;;;;;;;22.33;12.30;;;;;;;13.26;100.00;98444.56;4996954;28;20026;-48
2023/05/22 04:42:05;;;;;;;17.85;11.65;;;;;;;13.49;100.00;98440.25;4996575;28;20364;-48
2023/05/22 04:44:34;;;;;;;17.92;11.60;;;;;;;13.63;100.00;98430.88;5000647;28;20034;-48
2023/05/22 04:47:00;;;;;;;19.03;12.43;;;;;;;13.71;100.00;98446.84;5002035;28;20034;-48
2023/05/22 04:49:27;;;;;;;21.33;12.07;;;;;;;13.72;100.00;98434.06;4991400;28;20641;-48
2023/05/22 04:51:54;;;;;;;20.92;11.90;;;;;;;13.71;100.00;98438.69;4996010;28;20030;-49
2023/05/22 04:54:19;;;;;;;16.60;11.60;;;;;;;13.70;100.00;98444.34;5010079;28;20037;-49
2023/05/22 04:56:45;;;;;;;22.10;11.20;;;;;;;13.76;100.00;98446.97;5000833;28;20402;-49
2023/05/22 04:59:14;;;;;;;19.10;12.43;;;;;;;13.71;100.00;98444.13;4997790;28;20036;-49
2023/05/22 05:01:44;;;;;;;20.42;11.10;;;;;;;13.88;100.00;98446.16;4996876;28;20026;-49
2023/05/22 05:04:09;;;;;;;17.58;11.43;;;;;;;14.00;100.00;98441.59;4993760;28;20026;-49
2023/05/22 05:06:36;;;;;;;21.40;11.48;;;;;;;14.17;100.00;98442.56;4987318;28;20042;-49
2023/05/22 05:09:05;;;;;;;17.67;10.35;;;;;;;14.43;100.00;98441.25;4996909;28;20030;-49
2023/05/22 05:11:30;;;;;;;15.90;10.57;;;;;;;14.71;100.00;98442.44;4993797;28;20699;-48
2023/05/22 05:13:55;;;;;;;16.23;9.90;;;;;;;14.92;100.00;98438.25;4989364;28;20319;-48
2023/05/22 05:16:22;;;;;;;16.92;11.05;;;;;;;15.18;100.00;98436.88;4995402;28;20053;-48
2023/05/22 05:18:47;;;;;;;13.63;9.93;;;;;;;15.48;100.00;98439.38;4997028;28;20030;-48
2023/05/22 05:21:13;;;;;;;17.15;11.48;;;;;;;15.56;100.00;98432.69;5002348;28;20032;-49
2023/05/22 05:23:38;;;;;;;19.00;11.85;;;;;;;15.69;100.00;98435.16;4999801;28;20029;-48
2023/05/22 05:26:04;;;;;;;18.95;11.63;;;;;;;15.82;100.00;98439.47;4993801;28;20068;-49
2023/05/22 05:28:29;;;;;;;16.48;10.43;;;;;;;16.00;100.00;98430.22;4994852;28;20493;-48
2023/05/22 05:30:56;;;;;;;17.98;11.65;;;;;;;15.93;100.00;98443.22;4997072;28;20136;-49
2023/05/22 05:33:21;;;;;;;15.48;10.40;;;;;;;16.38;100.00;98434.09;4991272;28;20099;-49
2023/05/22 05:35:49;;;;;;;13.38;9.43;;;;;;;16.80;100.00;98431.72;4993514;28;20030;-49
2023/05/22 05:38:15;;;;;;;15.48;10.15;;;;;;;17.03;100.00;98433.38;4993395;28;20026;-50
2023/05/22 05:40:42;;;;;;;19.90;11.20;;;;;;;17.24;100.00;98429.00;4992324;28;20030;-49
2023/05/22 05:43:08;;;;;;;16.65;10.43;;;;;;;17.43;100.00;98428.66;4989229;28;20053;-49
2023/05/22 05:45:33;;;;;;;19.38;11.68;;;;;;;17.64;100.00;98422.28;4990563;28;20438;-49
2023/05/22 05:47:58;;;;;;;17.17;11.13;;;;;;;17.83;100.00;98422.78;4994904;28;20076;-57
2023/05/22 05:50:25;;;;;;;16.25;11.38;;;;;;;17.82;100.00;98428.53;4994341;28;20136;-57
2023/05/22 05:52:50;;;;;;;16.55;10.60;;;;;;;17.95;100.00;98414.41;4995920;28;20025;-58
2023/05/22 05:55:16;;;;;;;19.13;10.90;;;;;;;17.94;100.00;98420.94;4999941;28;22869;-58
2023/05/22 05:57:41;;;;;;;18.92;10.70;;;;;;;18.02;100.00;98431.41;4993530;28;20030;-58
2023/05/22 06:00:09;;;;;;;19.30;10.88;;;;;;;18.08;100.00;98430.41;4993204;28;20449;-57
2023/05/22 06:02:36;;;;;;;20.70;11.93;;;;;;;18.18;100.00;98425.00;4981045;28;20029;-58
2023/05/22 06:05:04;;;;;;;16.90;11.27;;;;;;;18.47;100.00;98432.03;4991276;28;20084;-57
2023/05/22 06:07:30;;;;;;;20.60;11.88;;;;;;;18.74;100.00;98426.44;4994226;28;20022;-57
2023/05/22 06:09:57;;;;;;;16.45;11.32;;;;;;;19.23;100.00;98426.13;4987907;28;20022;-57
2023/05/22 06:12:23;;;;;;;18.83;11.32;;;;;;;19.58;100.00;98427.34;4986323;28;20096;-57
2023/05/22 06:14:49;;;;;;;19.60;11.25;;;;;;;20.08;100.00;98429.34;4999851;28;20466;-57
2023/05/22 06:17:15;;;;;;;18.45;11.25;;;;;;;20.72;100.00;98425.19;4991513;28;20056;-57
2023/05/22 06:19:42;;;;;;;15.35;10.98;;;;;;;20.96;100.00;98421.81;5000979;28;20076;-57
2023/05/22 06:22:07;;;;;;;20.30;10.82;;;;;;;21.39;100.00;98417.50;4993411;28;20030;-57
2023/05/22 06:24:33;;;;;;;14.80;10.50;;;;;;;22.14;100.00;98407.34;4995491;28;20024;-57
2023/05/22 06:27:00;;;;;;;22.73;10.98;;;;;;;22.41;100.00;98410.44;5013154;28;20025;-57
2023/05/22 06:29:25;;;;;;;15.35;10.82;;;;;;;22.40;100.00;98407.97;4996188;28;20052;-57
2023/05/22 06:31:51;;;;;;;20.80;10.98;;;;;;;22.93;100.00;98406.03;5013782;28;20983;-57
2023/05/22 06:34:16;;;;;;;16.48;10.05;;;;;;;24.67;100.00;98400.66;5011244;28;20441;-57
2023/05/22 06:36:41;;;;;;;12.80;9.43;;;;;;;26.95;100.00;98393.16;4982405;28;20474;-58
2023/05/22 06:39:07;;;;;;;17.95;10.05;;;;;;;28.00;93.81;98397.78;4993804;28;20033;-57
2023/05/22 06:41:34;;;;;;;14.80;9.85;;;;;;;29.44;76.89;98396.31;4996763;28;20022;-57
2023/05/22 06:44:01;;;;;;;13.32;9.85;;;;;;;30.71;69.69;98386.69;4996069;28;20060;-58
2023/05/22 06:46:26;;;;;;;18.98;10.20;;;;;;;31.36;60.91;98390.44;4995592;28;20064;-58
2023/05/22 06:48:53;;;;;;;19.48;10.18;;;;;;;30.99;61.96;98398.84;4995765;28;20061;-58
2023/05/22 06:51:20;;;;;;;15.57;9.38;;;;;;;32.14;56.81;98401.59;4993867;28;20464;-58
2023/05/22 06:53:45;;;;;;;12.93;8.77;;;;;;;32.49;56.10;98399.81;4987686;28;20022;-58
2023/05/22 06:56:11;;;;;;;13.40;8.88;;;;;;;32.97;53.91;98399.84;4992970;28;20109;-58
2023/05/22 06:58:36;;;;;;;15.00;9.50;;;;;;;33.85;51.04;98401.50;4992247;28;20118;-58
2023/05/22 07:01:01;;;;;;;13.05;8.55;;;;;;;33.50;51.40;98405.13;4994485;28;20034;-58
2023/05/22 07:03:27;;;;;;;12.27;9.23;;;;;;;29.86;59.25;98402.75;4982786;28;20033;-58
2023/05/22 07:05:55;;;;;;;10.88;8.63;;;;;;;28.05;76.66;98405.94;4984184;28;20045;-58
2023/05/22 07:08:21;;;;;;;12.73;9.48;;;;;;;26.12;100.00;98407.53;4991867;28;20121;-58
2023/05/22 07:10:46;;;;;;;12.02;9.02;;;;;;;25.24;100.00;98414.25;4995282;28;20444;-58
2023/05/22 07:13:12;;;;;;;12.63;9.10;;;;;;;24.91;100.00;98413.50;4996005;28;20430;-58
2023/05/22 07:15:37;;;;;;;12.55;8.32;;;;;;;25.01;100.00;98415.25;4995010;28;20022;-58
2023/05/22 07:18:03;;;;;;;13.00;8.65;;;;;;;25.17;100.00;98413.00;4993984;28;20432;-58
2023/05/22 07:20:28;;;;;;;15.52;8.85;;;;;;;25.54;100.00;98411.91;4985085;28;20029;-58
2023/05/22 07:22:54;;;;;;;18.33;8.07;;;;;;;27.06;100.00;98405.59;4990482;28;20026;-57
2023/05/22 07:25:20;;;;;;;12.85;7.97;;;;;;;27.31;100.00;98406.84;4988582;28;20551;-58
2023/05/22 07:27:45;;;;;;;12.32;8.75;;;;;;;28.26;92.50;98414.44;4992115;28;20033;-57
2023/05/22 07:30:11;;;;;;;9.45;7.05;;;;;;;30.72;72.82;98405.88;4994949;28;20030;-58
2023/05/22 07:32:37;;;;;;;12.38;6.95;;;;;;;32.18;62.34;98402.50;4991722;28;20060;-58
2023/05/22 07:35:03;;;;;;;8.65;6.97;;;;;;;31.18;65.57;98408.63;4986681;28;20022;-58
2023/05/22 07:37:30;;;;;;;8.32;7.18;;;;;;;31.34;63.08;98408.72;4992905;28;20026;-58
2023/05/22 07:39:55;;;;;;;9.10;5.95;;;;;;;30.73;65.35;98413.09;4994929;28;20072;-58
2023/05/22 07:42:22;;;;;;;7.93;6.13;;;;;;;29.37;72.34;98421.13;4991559;28;20441;-58
2023/05/22 07:44:47;;;;;;;8.68;6.28;;;;;;;28.22;74.28;98412.63;5011937;28;20381;-58
2023/05/22 07:47:13;;;;;;;9.88;6.32;;;;;;;27.46;82.38;98413.94;4994029;28;20064;-58
2023/05/22 07:49:38;;;;;;;8.60;6.13;;;;;;;27.71;87.58;98418.69;4987518;28;20030;-58
2023/05/22 07:52:04;;;;;;;9.52;6.57;;;;;;;29.04;77.50;98422.59;4987653;28;20441;-58
2023/05/22 07:54:29;;;;;;;7.97;5.68;;;;;;;31.36;63.92;98415.59;5010772;28;20052;-58
2023/05/22 07:56:55;;;;;;;7.22;6.28;;;;;;;31.69;62.45;98417.44;4982664;28;20131;-58
2023/05/22 07:59:20;;;;;;;9.93;5.75;;;;;;;33.83;54.90;98422.34;5011143;23;20048;-61
2023/05/22 08:01:46;;;;;;;7.57;6.05;;;;;;;35.52;50.56;98417.88;5067662;28;20025;-58
2023/05/22 08:04:11;;;;;;;7.25;5.97;;;;;;;37.07;46.28;98414.94;5064824;28;20444;-58
2023/05/22 08:06:38;;;;;;;8.40;5.80;;;;;;;37.63;44.40;98412.97;5063624;28;20040;-59
2023/05/22 08:09:03;;;;;;;7.10;5.53;;;;;;;38.69;43.57;98416.66;5058054;28;20035;-59
2023/05/22 08:11:29;;;;;;;8.88;6.30;;;;;;;38.71;41.95;98411.41;5056772;28;20083;-60
2023/05/22 08:13:55;;;;;;;8.18;5.90;;;;;;;38.85;40.86;98396.47;5056512;28;20036;-58
2023/05/22 08:16:21;;;;;;;11.23;5.97;;;;;;;39.58;39.93;98402.53;5057588;28;20077;-58
2023/05/22 08:18:48;;;;;;;7.32;6.38;;;;;;;38.02;40.44;98412.38;5058203;28;20123;-61
2023/05/22 08:21:13;;;;;;;8.87;6.40;;;;;;;39.15;40.37;98410.25;5057769;28;20155;-62
2023/05/22 08:23:38;;;;;;;6.67;5.93;;;;;;;38.26;40.69;98410.88;5059504;28;20474;-61
2023/05/22 08:26:07;;;;;;;7.65;6.53;;;;;;;37.23;43.29;98409.84;5057291;28;20274;-60
2023/05/22 08:28:33;;;;;;;8.18;7.05;;;;;;;36.74;43.37;98401.75;5057956;28;20017;-60
2023/05/22 08:30:58;;;;;;;7.63;5.38;;;;;;;39.35;40.93;98402.97;5058437;28;20070;-60
2023/05/22 08:33:24;;;;;;;8.10;5.70;;;;;;;39.23;40.44;98406.22;5053523;28;20032;-61
2023/05/22 08:35:49;;;;;;;11.77;6.65;;;;;;;37.91;41.33;98415.13;5059034;28;20618;-61
2023/05/22 08:38:15;;;;;;;10.25;6.53;;;;;;;38.54;41.33;98408.16;5059014;28;20032;-60
2023/05/22 08:40:42;;;;;;;7.07;6.38;;;;;;;39.53;40.44;98404.97;5057406;28;20024;-61
2023/05/22 08:43:08;;;;;;;8.55;6.10;;;;;;;40.44;38.71;98402.25;5056343;28;20544;-59
2023/05/22 08:45:33;;;;;;;6.88;6.18;;;;;;;40.80;37.92;98398.41;5055930;28;20118;-58
2023/05/22 08:48:04;;;;;;;8.00;6.45;;;;;;;39.63;38.20;98396.44;5056396;28;20395;-59
2023/05/22 08:50:29;;;;;;;7.28;6.10;;;;;;;40.86;37.83;98393.91;5057692;28;20074;-58
2023/05/22 08:52:57;;;;;;;7.40;6.10;;;;;;;40.28;37.21;98397.06;5057596;28;20029;-59
2023/05/22 08:55:23;;;;;;;7.10;5.82;;;;;;;39.94;38.77;98391.13;5053988;28;20039;-59
2023/05/22 08:57:49;;;;;;;9.43;6.20;;;;;;;40.42;37.44;98384.84;5058112;28;20020;-59
2023/05/22 09:00:15;;;;;;;11.18;7.03;;;;;;;39.42;37.67;98391.66;5057874;28;20037;-58
2023/05/22 09:02:41;;;;;;;9.25;6.63;;;;;;;38.34;38.27;98395.56;5056461;28;20024;-59
2023/05/22 09:05:08;;;;;;;8.52;7.00;;;;;;;39.13;38.28;98384.38;5053782;28;20020;-60
2023/05/22 09:07:33;;;;;;;7.05;6.15;;;;;;;40.83;37.38;98389.06;5056252;28;20375;-61
2023/05/22 09:09:59;;;;;;;8.10;5.28;;;;;;;42.08;36.36;98389.88;5053848;28;20024;-59
2023/05/22 09:12:26;;;;;;;6.68;5.93;;;;;;;42.83;34.69;98398.19;5058059;28;20021;-58
2023/05/22 09:14:51;;;;;;;7.68;6.03;;;;;;;42.14;34.89;98389.00;5057608;28;20028;-59
2023/05/22 09:17:17;;;;;;;6.57;5.30;;;;;;;43.10;34.29;98381.09;5052772;28;20028;-60
2023/05/22 09:19:44;;;;;;;9.20;5.95;;;;;;;42.10;34.50;98385.38;5057073;28;20024;-59
2023/05/22 09:22:10;;;;;;;7.78;6.03;;;;;;;42.29;34.39;98385.94;5055592;28;20027;-59
2023/05/22 09:24:45;;;;;;;6.97;5.55;;;;;;;42.80;33.83;98386.88;5057249;28;20220;-60
2023/05/22 09:27:11;;;;;;;6.18;5.57;;;;;;;42.95;33.44;98384.63;5058063;28;20555;-59
2023/05/22 09:29:56;;;;;;;6.28;5.55;;;;;;;42.11;34.56;98389.06;5057255;28;20071;-61
2023/05/22 09:32:22;;;;;;;6.53;5.78;;;;;;;39.95;36.81;98389.09;5057571;28;20077;-59
2023/05/22 09:34:49;;;;;;;7.85;6.57;;;;;;;39.85;35.92;98385.91;5054406;28;20024;-61
2023/05/22 09:37:15;;;;;;;8.07;6.20;;;;;;;39.28;37.29;98383.16;5048643;28;20067;-60
2023/05/22 09:39:47;;;;;;;7.32;6.40;;;;;;;40.70;36.16;98383.88;5056626;28;20017;-60
2023/05/22 09:42:16;;;;;;;7.57;5.30;;;;;;;41.17;35.50;98389.22;5055112;28;20059;-60
2023/05/22 09:44:47;;;;;;;6.78;6.07;;;;;;;40.79;34.18;98389.06;5056397;28;20066;-61
2023/05/22 09:47:12;;;;;;;9.55;5.68;;;;;;;41.83;35.21;98379.59;5057264;28;20017;-60
2023/05/22 09:49:42;;;;;;;6.37;5.70;;;;;;;41.76;34.32;98379.69;5051379;28;20029;-60
2023/05/22 09:52:08;;;;;;;9.70;5.45;;;;;;;43.15;33.68;98376.91;5049297;28;20336;-59
2023/05/22 09:54:37;;;;;;;7.18;5.05;;;;;;;42.98;34.60;98383.75;5057289;28;20024;-59
2023/05/22 09:57:08;;;;;;;7.72;5.95;;;;;;;42.19;34.18;98379.19;5057706;28;20032;-60
2023/05/22 09:59:37;;;;;;;6.75;5.60;;;;;;;42.77;33.81;98371.47;5056335;28;20368;-61
2023/05/22 10:02:04;;;;;;;8.02;5.82;;;;;;;42.46;33.40;98376.41;5055080;28;20035;-61
2023/05/22 10:04:31;;;;;;;10.90;6.28;;;;;;;40.09;35.96;98366.38;5055767;28;20032;-60
2023/05/22 10:07:02;;;;;;;7.75;6.55;;;;;;;39.16;36.26;98369.41;5055660;28;20498;-61
2023/05/22 10:09:33;;;;;;;8.88;6.03;;;;;;;40.71;35.90;98362.78;5055562;28;20391;-60
2023/05/22 10:12:04;;;;;;;6.88;6.13;;;;;;;42.61;33.49;98362.78;5056857;28;20573;-60
2023/05/22 10:14:30;;;;;;;6.82;5.60;;;;;;;40.26;35.34;98365.50;5056840;28;20125;-60
2023/05/22 10:17:00;;;;;;;7.28;6.55;;;;;;;39.30;37.10;98357.25;5056687;28;20032;-60
2023/05/22 10:19:28;;;;;;;6.90;5.82;;;;;;;40.61;35.89;98362.84;5051268;28;20036;-60
2023/05/22 10:21:56;;;;;;;6.60;5.90;;;;;;;41.65;34.89;98351.41;5055659;28;20025;-60
2023/05/22 10:24:23;;;;;;;10.35;5.78;;;;;;;42.01;33.85;98368.84;5071497;28;20032;-60
2023/05/22 10:26:50;;;;;;;6.75;6.13;;;;;;;41.08;34.29;98358.44;5056597;28;20032;-60
2023/05/22 10:29:22;;;;;;;9.20;5.82;;;;;;;41.31;35.11;98362.72;5070782;28;20533;-60
2023/05/22 10:31:56;;;;;;;7.40;6.57;;;;;;;40.02;36.00;98355.88;5056408;28;20024;-60
2023/05/22 10:34:31;;;;;;;7.32;6.18;;;;;;;41.33;34.82;98358.22;5053487;28;20024;-60
2023/05/22 10:37:28;;;;;;;8.98;6.05;;;;;;;41.37;34.13;98358.19;5055500;28;20031;-60
2023/05/22 10:40:04;;;;;;;7.27;6.23;;;;;;;39.16;36.52;98353.25;5055449;28;20020;-60
2023/05/22 10:42:30;;;;;;;8.57;6.05;;;;;;;39.13;37.48;98345.56;5073018;28;20025;-60
2023/05/22 10:44:56;;;;;;;6.43;5.72;;;;;;;41.80;34.37;98346.38;5055694;28;20098;-60
2023/05/22 10:47:21;;;;;;;7.35;5.60;;;;;;;41.32;35.06;98345.25;5052908;28;20051;-60
2023/05/22 10:49:49;;;;;;;7.00;5.45;;;;;;;41.72;34.96;98351.34;5051314;28;20052;-60
2023/05/22 10:52:17;;;;;;;6.85;5.88;;;;;;;42.10;34.96;98347.63;5054855;28;20028;-60
2023/05/22 10:54:44;;;;;;;6.57;5.03;;;;;;;43.33;34.48;98348.94;5055788;28;20033;-60
2023/05/22 10:57:11;;;;;;;;;;;;;;;44.55;32.39;98337.09;5055616;28;20031;-60
2023/05/22 10:59:36;;;;;;;7.43;5.20;;;;;;;44.81;30.65;98336.06;5042952;28;19923;-60
2023/05/22 11:02:04;;;;;;;6.90;5.57;;;;;;;43.37;32.20;98331.81;5055725;28;20029;-60
2023/05/22 11:04:30;;;;;;;6.53;5.10;;;;;;;44.15;32.90;98334.31;5051180;28;20028;-60
2023/05/22 11:07:03;;;;;;;6.03;5.07;;;;;;;44.76;32.57;98332.91;5053993;28;20052;-60
2023/05/22 11:09:44;;;;;;;5.93;5.18;;;;;;;40.87;34.71;98336.72;5054907;28;20166;-60
2023/05/22 11:12:23;;;;;;;11.63;5.60;;;;;;;42.20;33.92;98327.56;5055438;28;20017;-60
2023/05/22 11:14:52;;;;;;;5.95;5.38;;;;;;;43.26;33.96;98325.50;5055159;28;20399;-60
2023/05/22 11:17:28;;;;;;;6.22;5.55;;;;;;;44.49;32.27;98322.56;5062809;28;20016;-60
2023/05/22 11:20:04;;;;;;;8.20;6.00;;;;;;;42.00;32.76;98323.78;5069466;28;20400;-60